Terminal Aerodrome Forecast
Issued by NWS

Home | Current Version | Previous Version | Text Only | Print | Product List | Glossary On
Versions: 1 2 3 4 5 6 7 8 9 10 11 12
242
FTPA31 PHFO 310520
TAFHOG
TAF
PHOG 310520Z 3106/0106 04008KT P6SM VCSH SCT030 BKN045
     FM312000 03014G23KT P6SM VCSH SCT030 BKN050
     FM010500 04010KT P6SM VCSH SCT030 BKN045
      AMD LTD TO VIS AND WIND 3109/3116=

USA.gov is the U.S. government's official web portal to all federal, state and local government web resources and services.